10K Masculino – Corrida Virtual CORTUBA

[/vc_column_text][/vc_column][/vc_row]

Resultado 10K Masculino

Colocação GeralNomeColocação Faixa EtáriaNúmeroSexoIdadeTempo BrutoTempo LiquidoEquipeCidadeRitmo Tempo LiquidoVelocidade Tempo LiquidoDescrição ModalidadeDescrição Faixa EtáriaCertificado
1FELIPE FERNANDES-156M2800:33:4500:33:45F3 ASSESSORIATubarão00:03:2217,7810KMasculino de 25 até 29 anosImprimir
2DANIEL PARENTE MORAIS-100M3600:35:1900:35:19TESBA RUNNERSFEIRA DE SANTANA00:03:3216,9910KMasculino de 35 até 39 anosImprimir
3NESTOR VIEIRA-338M4500:36:2500:36:25F3 ASSESSORIACAPIVARI DE BAIXO00:03:3816,4810KMasculino de 45 até 49 anosImprimir
4JORGE OURIQUES BATISTA-227M4200:38:1600:38:16BN RUNNERSBRAÇO DO NORTE00:03:5015,6810KMasculino de 40 até 44 anosImprimir
5RICKY RIBEIRO-368M3000:38:3700:38:37F3 ASSESSORIATubarão00:03:5215,5410KMasculino de 30 até 34 anosImprimir
6BRUNO CHAGAS SILVA161M3500:39:3800:39:38F3 ASSESSORIATubarão00:03:5815,1410KMasculino de 35 até 39 anosImprimir
7RICARDO SCHEIDT CARDOSO1367M4800:40:4400:40:44MOVE ITTUBARÃO00:04:0414,7310KMasculino de 45 até 49 anosImprimir
8MÁRCIO GEREMIAS MACHADO1302M3100:41:2800:41:28Sangão00:04:0914,4710KMasculino de 30 até 34 anosImprimir
9GUSTAVO FELIPE PONTES2191M3100:41:4200:41:42RUNNING FRIENDSTUBARÃO00:04:1014,3910KMasculino de 30 até 34 anosImprimir
10MAICON MACHADO3294M3400:42:2000:42:20TUBARÃO RUNNERSCAPIVARI DE BAIXO00:04:1414,1710KMasculino de 30 até 34 anosImprimir
11LUAN RODRIGUES1274M2600:42:4500:42:45GAROPABA RUNNERS F3 ASSESSORIA ESPORTIVAGaropaba00:04:1714,0410KMasculino de 25 até 29 anosImprimir
12GUILHERME ROBERTO ROSA RITA2189M2600:46:3000:46:30Gravatal00:04:3912,9010KMasculino de 25 até 29 anosImprimir
13BRUNO PAZETO463M3100:46:3200:46:32CORREDORES BNBRAÇO DO NORTE00:04:3912,8910KMasculino de 30 até 34 anosImprimir
14GELSON MARTIN DA SILVA5171M3100:47:0600:47:06RUNNING FRIENDSTUBARÃO00:04:4312,7410KMasculino de 30 até 34 anosImprimir
15YAN VITOR BORGES1439M2300:48:2900:48:29SOB PRESSÃOJoinville00:04:5112,3810KMasculino de 20 até 24 anosImprimir
16JACI SUMARIVA MACHADO1212M5200:50:3600:50:36TECH RUNTUBARÃO00:05:0411,8610KMasculino de 50 até 54 anosImprimir
17LUIZ GONZAGA BITTENCOURT1287M5800:50:3600:50:36TECH RUNTUBARÃO00:05:0411,8610KMasculino de 55 até 59 anosImprimir
18JAB AMORIN2444M4900:50:5000:50:50TUBARÃO RUNNERSImbituba00:05:0511,8010KMasculino de 45 até 49 anosImprimir
19AROLDO PEREIRA DE OLIVEIRA348M4600:51:4500:51:45SOB PRESSÃOJoinville00:05:1011,5910KMasculino de 45 até 49 anosImprimir
20GUILHERME MATEUS MACHADO MACIEL2188M2100:51:4900:51:49NATURAL FITGRAVATAI-RS00:05:1111,5810KMasculino de 20 até 24 anosImprimir
21FLÁVIO GRACIANO DA ROSA MARCELO3161M2600:52:1000:52:10Tubarão00:05:1311,5010KMasculino de 25 até 29 anosImprimir
22CLÁUDIO SOMBRIO NAZARIO287M5200:52:1600:52:16RUNNING FRIENDSTUBARÃO00:05:1411,4810KMasculino de 50 até 54 anosImprimir
23WILSON POLICARPI3437M5200:52:3200:52:32X RUNNERSNOVA VENEZA00:05:1511,4210KMasculino de 50 até 54 anosImprimir
24JOÃO PAULO MAFESSOLI6224M3400:53:4600:53:46CRICIÚMA00:05:2311,1610KMasculino de 30 até 34 anosImprimir
25MAYCON LUIZ BARBOSA2328M3600:53:5200:53:52TESBA RUNNERSTUBARÃO00:05:2311,1410KMasculino de 35 até 39 anosImprimir
26ANDRÉ DE LUCA DE BEM427M2900:53:5300:53:53X RUNNERSCRICIÚMA00:05:2311,1410KMasculino de 25 até 29 anosImprimir
27BENEVAL DE SOUZA CORREIA457M5300:53:5500:53:55DOCTOR FITImbituba00:05:2311,1310KMasculino de 50 até 54 anosImprimir
28DIUNEI CRUZETA5115M5100:56:0000:56:00CORREDORES BNBRAÇO DO NORTE00:05:3610,7110KMasculino de 50 até 54 anosImprimir
29EUBRINE DE SOUZA GUIMARÃES6142M5000:56:1500:56:15CAPIVARI DE BAIXO00:05:3810,6710KMasculino de 50 até 54 anosImprimir
30DOUGLAS MAIER MARTINHO7119M3400:56:5300:56:53BN RUNNERSBRAÇO DO NORTE00:05:4110,5510KMasculino de 30 até 34 anosImprimir
31MAYCON DA SILVA DE SOUZA1327M4200:57:4300:57:43RUNNING FRIENDSTUBARÃO00:05:4610,4010KMasculino de 40 até 44 anosImprimir
32PAULO SÉRGIO P. DE BONA PORTÃO3351M3900:57:4400:57:44PMSCTubarão00:05:4610,3910KMasculino de 35 até 39 anosImprimir
33FABIO DE GODOI MACHADO2149M4400:58:5800:58:58MOVA-SECRICIÚMA00:05:5410,1810KMasculino de 40 até 44 anosImprimir
34THIAGO FRETTA BRESSAN3415M4000:59:0900:59:09RUNNING FRIENDSTUBARÃO00:05:5510,1410KMasculino de 40 até 44 anosImprimir
35TIAGO DA SILVA CASCAES5417M2901:04:3901:04:39TESBA RUNNERSTUBARÃO00:06:289,2810KMasculino de 25 até 29 anosImprimir
36HELIO CARDOSO1194M7201:09:0001:09:00CORREDORES BNBRAÇO DO NORTE00:06:548,7010KMasculino de 70 até 74 anosImprimir
37DILSON ALVES DA SILVA4111M4801:10:3101:10:31TESBA RUNNERSFEIRA DE SANTANA00:07:038,5110KMasculino de 45 até 49 anosImprimir
38JEAN CARLO DA SILVA COELHO COELHO7217M5201:19:0001:19:00Gravatai RS00:07:547,5910KMasculino de 50 até 54 anosImprimir
pt_BRPortuguese
pt_BRPortuguese